Dades meteomassalio
Diari Summary for Marc 30, 2017 Units:  English    Metric   Both
« Previous Day
Next Day »
Diari Semanal Mensual Anual Personalitzat
  Maxima: Minima: Mijana:
Temperatura: TemperatureC °F 4.5 °F 13.7 °F
Rosada: DewpointC °F 3.2 °F 6.6 °F
Humitat: Humidity % 41 % 65 %
Velocitat del vent: WindSpeedKMH mph 0.0 mph 7.1 mph
Racha vent: WindSpeedGustKMH mph - -
Vent:- - ESE
Pressio: PressurehPa in 1020.9 in -
Pluja: 0.0 in    
Historical Graphs
 
 
Tabular Data for Marc 30, 2017
Time Temperature Dew Point Pressure Wind Wind Speed Wind Gust Humidity Rainfall Rate (Hourly) solar Conditions
TemperatureC °F DewpointC °F PressurehPa in Calm     Humidity % HourlyPrecipMM in SolarRadiationWatts/m^2 W/m2 Conditions
00:01 10.3 °F 6.8 °F 1026.0 in Calm     79 % 0.0 in 0.0 W/m2 CLR
00:06 10.2 °F 6.9 °F 1026.0 in Calm     80 % 0.0 in 0.0 W/m2 CLR
00:11 10.1 °F 6.8 °F 1026.3 in Calm     80 % 0.0 in 0.0 W/m2 CLR
00:16 10.1 °F 6.8 °F 1026.3 in Calm     80 % 0.0 in 0.0 W/m2 CLR
00:21 10.0 °F 6.7 °F 1026.3 in Calm     80 % 0.0 in 0.0 W/m2 CLR
00:26 9.7 °F 6.4 °F 1026.3 in Calm     80 % 0.0 in 0.0 W/m2 CLR
00:31 9.5 °F 6.4 °F 1026.3 in Calm     81 % 0.0 in 0.0 W/m2 CLR
00:36 9.4 °F 6.4 °F 1026.3 in Calm     82 % 0.0 in 0.0 W/m2 CLR
00:41 9.2 °F 6.3 °F 1026.3 in Calm     82 % 0.0 in 0.0 W/m2 CLR
00:46 9.1 °F 6.3 °F 1026.3 in Calm     83 % 0.0 in 0.0 W/m2 CLR
00:51 8.9 °F 6.2 °F 1026.3 in Calm     83 % 0.0 in 0.0 W/m2 CLR
00:56 8.9 °F 6.3 °F 1026.3 in Calm     84 % 0.0 in 0.0 W/m2 CLR
01:01 8.8 °F 6.3 °F 1026.3 in Calm     84 % 0.0 in 0.0 W/m2 CLR
01:06 8.7 °F 6.0 °F 1026.3 in Calm     83 % 0.0 in 0.0 W/m2 CLR
01:11 8.6 °F 5.9 °F 1026.0 in Calm     83 % 0.0 in 0.0 W/m2 CLR
01:16 8.5 °F 5.9 °F 1026.0 in Calm     84 % 0.0 in 0.0 W/m2 CLR
01:21 8.3 °F 5.8 °F 1026.0 in Calm     84 % 0.0 in 0.0 W/m2 CLR
01:26 8.2 °F 5.7 °F 1026.0 in Calm     84 % 0.0 in 0.0 W/m2 CLR
01:31 8.1 °F 5.5 °F 1026.0 in Calm     84 % 0.0 in 0.0 W/m2 CLR
01:36 7.9 °F 5.6 °F 1026.0 in Calm     85 % 0.0 in 0.0 W/m2 CLR
01:41 7.9 °F 5.5 °F 1026.3 in Calm     85 % 0.0 in 0.0 W/m2 CLR
01:46 7.8 °F 5.4 °F 1026.0 in Calm     85 % 0.0 in 0.0 W/m2 CLR
01:51 7.8 °F 5.4 °F 1026.0 in Calm     85 % 0.0 in 0.0 W/m2 CLR
01:56 7.7 °F 5.5 °F 1026.3 in Calm     86 % 0.0 in 0.0 W/m2 CLR
02:01 7.6 °F 5.4 °F 1026.3 in Calm     86 % 0.0 in 0.0 W/m2 CLR
02:06 7.5 °F 5.3 °F 1026.3 in Calm     86 % 0.0 in 0.0 W/m2 CLR
02:11 7.4 °F 5.2 °F 1026.3 in Calm     86 % 0.0 in 0.0 W/m2 CLR
02:16 7.3 °F 5.3 °F 1026.3 in Calm     87 % 0.0 in 0.0 W/m2 CLR
02:21 7.2 °F 5.2 °F 1026.3 in Calm     87 % 0.0 in 0.0 W/m2 CLR
02:26 7.2 °F 5.2 °F 1026.3 in Calm     87 % 0.0 in 0.0 W/m2 CLR
02:31 7.1 °F 5.1 °F 1026.3 in Calm     87 % 0.0 in 0.0 W/m2 CLR
02:36 7.1 °F 5.1 °F 1026.3 in Calm     87 % 0.0 in 0.0 W/m2 CLR
02:41 7.1 °F 5.1 °F 1026.3 in Calm     87 % 0.0 in 0.0 W/m2 CLR
02:46 6.9 °F 4.9 °F 1026.3 in Calm     87 % 0.0 in 0.0 W/m2 CLR
02:51 6.8 °F 4.8 °F 1026.3 in Calm     87 % 0.0 in 0.0 W/m2 CLR
02:56 6.7 °F 4.7 °F 1026.3 in Calm     87 % 0.0 in 0.0 W/m2 CLR
03:01 6.7 °F 4.7 °F 1026.3 in Calm     87 % 0.0 in 0.0 W/m2 CLR
03:06 6.6 °F 4.8 °F 1026.3 in Calm     88 % 0.0 in 0.0 W/m2 CLR
03:12 6.6 °F 4.7 °F 1026.3 in Calm     88 % 0.0 in 0.0 W/m2 CLR
03:17 6.6 °F 4.7 °F 1026.3 in Calm     88 % 0.0 in 0.0 W/m2 CLR
03:22 6.4 °F 4.6 °F 1026.0 in Calm     88 % 0.0 in 0.0 W/m2 CLR
03:27 6.4 °F 4.6 °F 1026.3 in Calm     88 % 0.0 in 0.0 W/m2 CLR
03:32 6.3 °F 4.5 °F 1026.3 in Calm     88 % 0.0 in 0.0 W/m2 CLR
03:37 6.2 °F 4.4 °F 1026.0 in Calm     88 % 0.0 in 0.0 W/m2 CLR
03:42 6.2 °F 4.5 °F 1026.0 in Calm     89 % 0.0 in 0.0 W/m2 CLR
03:47 6.1 °F 4.4 °F 1026.0 in Calm     89 % 0.0 in 0.0 W/m2 CLR
03:52 6.1 °F 4.4 °F 1026.0 in Calm     89 % 0.0 in 0.0 W/m2 CLR
03:57 6.0 °F 4.3 °F 1026.0 in Calm     89 % 0.0 in 0.0 W/m2 CLR
04:02 5.9 °F 4.3 °F 1026.0 in Calm     89 % 0.0 in 0.0 W/m2 CLR
04:07 5.9 °F 4.3 °F 1025.6 in Calm     89 % 0.0 in 0.0 W/m2 CLR
04:12 5.9 °F 4.3 °F 1025.6 in Calm     89 % 0.0 in 0.0 W/m2 CLR
04:17 5.9 °F 4.2 °F 1025.6 in Calm     89 % 0.0 in 0.0 W/m2 CLR
04:22 5.9 °F 4.2 °F 1025.6 in Calm     89 % 0.0 in 0.0 W/m2 CLR
04:27 5.8 °F 4.2 °F 1025.6 in Calm     89 % 0.0 in 0.0 W/m2 CLR
04:32 5.7 °F 4.1 °F 1025.6 in Calm     89 % 0.0 in 0.0 W/m2 CLR
04:37 5.6 °F 3.9 °F 1025.6 in Calm     89 % 0.0 in 0.0 W/m2 CLR
04:42 5.5 °F 3.8 °F 1025.6 in Calm     89 % 0.0 in 0.0 W/m2 CLR
04:47 5.4 °F 3.8 °F 1025.6 in Calm     89 % 0.0 in 0.0 W/m2 CLR
04:49 5.4 °F 3.9 °F 1025.6 in Calm     90 % 0.0 in 0.0 W/m2 CLR
04:54 5.4 °F 3.9 °F 1025.6 in Calm     90 % 0.0 in 0.0 W/m2 CLR
04:58 5.4 °F 3.9 °F 1025.6 in Calm     90 % 0.0 in 0.0 W/m2 CLR
05:04 5.5 °F 4.0 °F 1025.6 in Calm     90 % 0.0 in 0.0 W/m2 CLR
05:09 5.5 °F 4.0 °F 1025.6 in Calm     90 % 0.0 in 0.0 W/m2 CLR
05:14 5.4 °F 3.9 °F 1025.6 in Calm     90 % 0.0 in 0.0 W/m2 CLR
05:19 5.4 °F 3.9 °F 1025.6 in Calm     90 % 0.0 in 0.0 W/m2 CLR
05:24 5.3 °F 3.8 °F 1025.6 in Calm     90 % 0.0 in 0.0 W/m2 CLR
05:29 5.3 °F 3.8 °F 1025.6 in Calm     90 % 0.0 in 0.0 W/m2 CLR
05:34 5.2 °F 3.7 °F 1025.3 in Calm     90 % 0.0 in 0.0 W/m2 CLR
05:39 5.1 °F 3.6 °F 1025.3 in Calm     90 % 0.0 in 0.0 W/m2 CLR
05:44 5.1 °F 3.6 °F 1025.3 in Calm     90 % 0.0 in 0.0 W/m2 CLR
05:49 5.1 °F 3.6 °F 1025.3 in Calm     90 % 0.0 in 0.0 W/m2 CLR
05:54 5.0 °F 3.5 °F 1025.3 in Calm     90 % 0.0 in 0.0 W/m2 CLR
05:59 4.9 °F 3.4 °F 1025.3 in Calm     90 % 0.0 in 0.0 W/m2 CLR
06:04 4.8 °F 3.3 °F 1025.3 in Calm     90 % 0.0 in 0.0 W/m2 CLR
06:09 4.8 °F 3.5 °F 1025.3 in Calm     91 % 0.0 in 0.0 W/m2 CLR
06:14 4.9 °F 3.6 °F 1025.3 in Calm     91 % 0.0 in 0.0 W/m2 CLR
06:19 4.9 °F 3.6 °F 1025.3 in Calm     91 % 0.0 in 0.0 W/m2 CLR
06:24 4.9 °F 3.6 °F 1025.3 in Calm     91 % 0.0 in 0.0 W/m2 CLR
06:29 4.8 °F 3.5 °F 1025.3 in Calm     91 % 0.0 in 0.0 W/m2 CLR
06:34 4.8 °F 3.5 °F 1025.3 in Calm     91 % 0.0 in 0.0 W/m2 CLR
06:39 4.9 °F 3.6 °F 1025.3 in Calm     91 % 0.0 in 0.0 W/m2 CLR
06:44 5.0 °F 3.7 °F 1025.6 in Calm     91 % 0.0 in 0.0 W/m2 CLR
06:49 5.2 °F 4.1 °F 1025.6 in Calm     92 % 0.0 in 0.0 W/m2 CLR
06:54 5.3 °F 3.9 °F 1025.6 in Calm     91 % 0.0 in 0.0 W/m2 CLR
06:55 5.3 °F 4.0 °F 1025.6 in Calm     91 % 0.0 in 0.0 W/m2 CLR
07:00 5.2 °F 3.9 °F 1025.6 in Calm     91 % 0.0 in 0.0 W/m2 CLR
07:05 5.1 °F 3.6 °F 1025.6 in Calm     90 % 0.0 in 0.0 W/m2 CLR
07:10 5.0 °F 3.7 °F 1025.6 in Calm     91 % 0.0 in 0.0 W/m2 CLR
07:15 4.8 °F 3.5 °F 1025.6 in Calm     91 % 0.0 in 0.0 W/m2 CLR
07:20 4.8 °F 3.3 °F 1025.6 in Calm     90 % 0.0 in 0.0 W/m2 CLR
07:25 4.7 °F 3.4 °F 1025.6 in Calm     91 % 0.0 in 0.0 W/m2 CLR
07:30 4.7 °F 3.3 °F 1026.0 in Calm     91 % 0.0 in 0.0 W/m2 CLR
07:35 4.7 °F 3.4 °F 1025.6 in Calm     91 % 0.0 in 0.0 W/m2 CLR
07:40 4.6 °F 3.3 °F 1026.0 in Calm     91 % 0.0 in 5.0 W/m2 OVC
07:45 4.5 °F 3.2 °F 1026.0 in Calm     91 % 0.0 in 7.0 W/m2 BKN
07:50 4.5 °F 3.2 °F 1026.0 in Calm     91 % 0.0 in 11.0 W/m2 BKN
07:55 4.5 °F 3.2 °F 1026.0 in Calm     91 % 0.0 in 12.0 W/m2 BKN
08:00 4.6 °F 3.2 °F 1026.0 in Calm     91 % 0.0 in 14.0 W/m2 BKN
08:05 4.6 °F 3.2 °F 1026.0 in Calm     91 % 0.0 in 18.0 W/m2 BKN
08:10 4.7 °F 3.3 °F 1026.0 in Calm     91 % 0.0 in 21.0 W/m2 BKN
08:15 4.8 °F 3.7 °F 1026.0 in Calm     92 % 0.0 in 28.0 W/m2 BKN
08:20 4.9 °F 3.8 °F 1026.3 in Calm     92 % 0.0 in 35.0 W/m2 BKN
08:25 5.1 °F 3.7 °F 1026.3 in Calm     91 % 0.0 in 47.0 W/m2 SCT
08:30 5.1 °F 3.8 °F 1026.3 in Calm     91 % 0.0 in 65.0 W/m2 SCT
08:35 5.3 °F 3.9 °F 1026.3 in Calm     91 % 0.0 in 70.0 W/m2 FEW
08:40 5.4 °F 4.1 °F 1026.3 in Calm     91 % 0.0 in 62.0 W/m2 SCT
08:45 5.7 °F 4.3 °F 1026.3 in Calm     91 % 0.0 in 28.0 W/m2 BKN
08:50 5.9 °F 4.6 °F 1026.3 in Calm     91 % 0.0 in 33.0 W/m2 BKN
08:55 6.1 °F 4.8 °F 1026.3 in Calm     91 % 0.0 in 139.0 W/m2 BKN
09:01 6.2 °F 4.7 °F 1026.3 in Calm     90 % 0.0 in 165.0 W/m2 FEW
09:06 6.4 °F 4.9 °F 1026.3 in Calm     90 % 0.0 in 181.0 W/m2 CLR
09:11 6.8 °F 5.3 °F 1026.3 in Calm     90 % 0.0 in 200.0 W/m2 CLR
09:16 7.2 °F 5.7 °F 1026.3 in Calm     90 % 0.0 in 221.0 W/m2 CLR
09:21 7.7 °F 5.9 °F 1026.3 in Calm     89 % 0.0 in 232.0 W/m2 CLR
09:26 8.2 °F 6.3 °F 1026.3 in Calm     88 % 0.0 in 257.0 W/m2 CLR
09:31 8.7 °F 6.7 °F 1026.3 in Calm     87 % 0.0 in 271.0 W/m2 CLR
09:36 9.1 °F 6.7 °F 1026.0 in Calm     85 % 0.0 in 290.0 W/m2 CLR
09:41 9.7 °F 7.1 °F 1026.0 in Calm     84 % 0.0 in 302.0 W/m2 CLR
09:46 10.2 °F 7.2 °F 1026.0 in Calm     82 % 0.0 in 316.0 W/m2 CLR
09:51 10.6 °F 7.3 °F 1026.0 in Calm     80 % 0.0 in 332.0 W/m2 CLR
09:56 11.2 °F 7.8 °F 1026.0 in Calm     80 % 0.0 in 352.0 W/m2 CLR
10:01 11.6 °F 7.9 °F 1026.0 in Calm     78 % 0.0 in 367.0 W/m2 CLR
10:06 12.2 °F 8.1 °F 1026.0 in Calm     76 % 0.0 in 381.0 W/m2 CLR
10:11 12.6 °F 8.1 °F 1026.0 in Calm     74 % 0.0 in 397.0 W/m2 CLR
10:16 13.0 °F 8.3 °F 1026.0 in Calm     73 % 0.0 in 415.0 W/m2 CLR
10:21 13.3 °F 8.0 °F 1026.0 in Calm     70 % 0.0 in 432.0 W/m2 CLR
10:26 13.6 °F 8.0 °F 1026.0 in Calm     69 % 0.0 in 446.0 W/m2 CLR
10:31 14.0 °F 8.4 °F 1026.0 in Calm     69 % 0.0 in 459.0 W/m2 CLR
10:36 14.5 °F 8.4 °F 1026.0 in Calm     67 % 0.0 in 473.0 W/m2 CLR
10:41 14.9 °F 8.1 °F 1025.6 in Calm     64 % 0.0 in 492.0 W/m2 CLR
10:46 15.2 °F 8.7 °F 1025.6 in Calm     65 % 0.0 in 504.0 W/m2 CLR
10:51 15.5 °F 8.7 °F 1025.6 in Calm     64 % 0.0 in 522.0 W/m2 CLR
10:56 15.8 °F 9.2 °F 1025.6 in Calm     65 % 0.0 in 536.0 W/m2 CLR
11:01 16.1 °F 9.1 °F 1025.6 in Calm     63 % 0.0 in 550.0 W/m2 CLR
11:06 16.4 °F 9.4 °F 1025.6 in ENE 7.4 mph 7.4 mph 63 % 0.0 in 563.0 W/m2 CLR
11:11 16.7 °F 9.6 °F 1025.3 in NE 7.4 mph 7.4 mph 63 % 0.0 in 577.0 W/m2 CLR
11:12 16.7 °F 9.6 °F 1025.3 in NE 7.4 mph 7.4 mph 63 % 0.0 in 577.0 W/m2 CLR
11:17 16.9 °F 9.8 °F 1025.3 in NE 7.4 mph 7.4 mph 63 % 0.0 in 587.0 W/m2 CLR
11:22 17.1 °F 9.5 °F 1025.3 in ENE 6.4 mph 6.4 mph 61 % 0.0 in 601.0 W/m2 CLR
11:27 17.2 °F 9.4 °F 1025.3 in ENE 5.6 mph 5.6 mph 60 % 0.0 in 613.0 W/m2 CLR
11:32 17.5 °F 9.9 °F 1025.3 in ENE 5.6 mph 5.6 mph 61 % 0.0 in 629.0 W/m2 CLR
11:37 17.8 °F 9.7 °F 1025.3 in NNE 3.7 mph 3.7 mph 59 % 0.0 in 640.0 W/m2 CLR
11:42 18.0 °F 9.6 °F 1024.9 in NNE 5.6 mph 5.6 mph 58 % 0.0 in 652.0 W/m2 CLR
11:47 18.2 °F 9.8 °F 1024.9 in ENE 11.1 mph 11.1 mph 58 % 0.0 in 666.0 W/m2 CLR
11:52 18.3 °F 9.7 °F 1024.9 in NNE 9.3 mph 9.3 mph 57 % 0.0 in 679.0 W/m2 CLR
11:57 18.6 °F 9.3 °F 1024.9 in NE 9.3 mph 9.3 mph 55 % 0.0 in 675.0 W/m2 CLR
12:02 18.7 °F 8.9 °F 1024.9 in East 11.1 mph 11.1 mph 53 % 0.0 in 696.0 W/m2 CLR
12:07 18.7 °F 9.2 °F 1024.9 in NE 5.6 mph 5.6 mph 54 % 0.0 in 698.0 W/m2 CLR
12:12 19.1 °F 9.3 °F 1024.9 in NE 9.3 mph 9.3 mph 53 % 0.0 in 715.0 W/m2 CLR
12:17 19.3 °F 9.2 °F 1024.6 in ENE 1.9 mph 1.9 mph 52 % 0.0 in 721.0 W/m2 CLR
12:22 19.7 °F 9.6 °F 1024.6 in NNE 9.3 mph 9.3 mph 52 % 0.0 in 722.0 W/m2 CLR
12:27 19.8 °F 9.1 °F 1024.6 in NE 7.4 mph 7.4 mph 50 % 0.0 in 728.0 W/m2 CLR
12:32 20.0 °F 9.6 °F 1024.6 in ENE 7.4 mph 7.4 mph 51 % 0.0 in 751.0 W/m2 CLR
12:37 20.1 °F 9.3 °F 1024.3 in East 14.8 mph 14.8 mph 50 % 0.0 in 759.0 W/m2 CLR
12:42 20.3 °F 9.5 °F 1024.3 in ENE 11.1 mph 11.1 mph 50 % 0.0 in 756.0 W/m2 CLR
12:47 20.6 °F 10.1 °F 1024.3 in ENE 7.4 mph 7.4 mph 51 % 0.0 in 766.0 W/m2 CLR
12:52 20.8 °F 9.7 °F 1024.3 in NNE 12.9 mph 12.9 mph 49 % 0.0 in 775.0 W/m2 CLR
12:57 21.1 °F 9.6 °F 1023.9 in Calm     48 % 0.0 in 784.0 W/m2 CLR
13:02 21.4 °F 9.3 °F 1023.9 in ENE 7.4 mph 7.4 mph 46 % 0.0 in 784.0 W/m2 CLR
13:07 21.4 °F 9.3 °F 1023.9 in East 8.0 mph 8.0 mph 46 % 0.0 in 780.0 W/m2 CLR
13:12 21.4 °F 9.7 °F 1023.9 in ENE 1.9 mph 1.9 mph 47 % 0.0 in 780.0 W/m2 CLR
13:17 21.3 °F 8.6 °F 1023.9 in Calm     44 % 0.0 in 780.0 W/m2 CLR
13:22 21.6 °F 9.8 °F 1023.6 in NNE 7.4 mph 7.4 mph 47 % 0.0 in 800.0 W/m2 CLR
13:27 21.8 °F 9.0 °F 1023.6 in ENE 5.6 mph 5.6 mph 44 % 0.0 in 798.0 W/m2 CLR
13:32 21.9 °F 9.1 °F 1023.6 in ESE 11.1 mph 11.1 mph 44 % 0.0 in 798.0 W/m2 CLR
13:37 22.1 °F 9.6 °F 1023.2 in ENE 13.0 mph 13.0 mph 45 % 0.0 in 793.0 W/m2 CLR
13:42 22.2 °F 9.0 °F 1023.2 in NE 16.1 mph 16.1 mph 43 % 0.0 in 802.0 W/m2 CLR
13:47 22.1 °F 9.2 °F 1023.2 in East 14.8 mph 14.8 mph 44 % 0.0 in 777.0 W/m2 CLR
13:52 22.3 °F 9.2 °F 1023.2 in East 9.3 mph 9.3 mph 43 % 0.0 in 798.0 W/m2 CLR
13:57 22.4 °F 8.9 °F 1023.2 in ENE 14.8 mph 14.8 mph 42 % 0.0 in 803.0 W/m2 CLR
14:01 22.6 °F 9.0 °F 1023.2 in NE 5.6 mph 5.6 mph 42 % 0.0 in 805.0 W/m2 CLR
14:06 22.4 °F 8.6 °F 1023.2 in SE 11.1 mph 11.1 mph 41 % 0.0 in 809.0 W/m2 CLR
14:11 22.4 °F 8.5 °F 1022.9 in East 20.4 mph 20.4 mph 41 % 0.0 in 786.0 W/m2 CLR
14:16 22.2 °F 8.7 °F 1022.9 in East 16.7 mph 16.7 mph 42 % 0.0 in 784.0 W/m2 CLR
14:21 22.2 °F 9.1 °F 1022.6 in East 18.5 mph 18.5 mph 43 % 0.0 in 807.0 W/m2 CLR
14:26 22.3 °F 9.5 °F 1022.6 in SE 16.7 mph 16.7 mph 44 % 0.0 in 793.0 W/m2 CLR
14:31 22.4 °F 9.6 °F 1022.6 in East 11.3 mph 11.3 mph 44 % 0.0 in 772.0 W/m2 CLR
14:36 22.4 °F 9.9 °F 1022.6 in ESE 18.5 mph 18.5 mph 45 % 0.0 in 786.0 W/m2 CLR
14:41 22.3 °F 9.8 °F 1022.2 in East 18.5 mph 18.5 mph 45 % 0.0 in 773.0 W/m2 CLR
14:46 22.4 °F 9.9 °F 1022.6 in SSE 20.4 mph 20.4 mph 45 % 0.0 in 758.0 W/m2 CLR
14:51 22.4 °F 9.9 °F 1022.6 in SE 18.5 mph 18.5 mph 45 % 0.0 in 772.0 W/m2 CLR
14:56 22.4 °F 9.9 °F 1022.2 in ESE 18.5 mph 18.5 mph 45 % 0.0 in 789.0 W/m2 CLR
15:01 22.2 °F 9.7 °F 1022.2 in ENE 24.1 mph 24.1 mph 45 % 0.0 in 784.0 W/m2 CLR
15:06 22.1 °F 10.2 °F 1022.2 in ESE 18.5 mph 18.5 mph 47 % 0.0 in 775.0 W/m2 CLR
15:11 22.1 °F 10.3 °F 1022.2 in ESE 24.1 mph 24.1 mph 47 % 0.0 in 737.0 W/m2 CLR
15:16 22.1 °F 10.3 °F 1022.2 in East 14.8 mph 14.8 mph 47 % 0.0 in 752.0 W/m2 CLR
15:21 22.3 °F 10.2 °F 1022.2 in ESE 22.2 mph 22.2 mph 46 % 0.0 in 728.0 W/m2 CLR
15:26 22.2 °F 10.0 °F 1022.2 in ESE 18.5 mph 18.5 mph 46 % 0.0 in 784.0 W/m2 CLR
15:31 22.1 °F 10.2 °F 1021.9 in ESE 24.1 mph 24.1 mph 47 % 0.0 in 768.0 W/m2 CLR
15:36 22.1 °F 9.9 °F 1021.9 in East 22.2 mph 22.2 mph 46 % 0.0 in 745.0 W/m2 CLR
15:41 22.2 °F 10.4 °F 1021.9 in East 22.2 mph 22.2 mph 47 % 0.0 in 729.0 W/m2 CLR
15:46 22.1 °F 9.9 °F 1021.9 in ESE 25.9 mph 25.9 mph 46 % 0.0 in 737.0 W/m2 CLR
15:51 22.3 °F 10.1 °F 1021.9 in ESE 18.5 mph 18.5 mph 46 % 0.0 in 726.0 W/m2 CLR
15:56 22.2 °F 10.7 °F 1021.6 in ESE 14.8 mph 14.8 mph 48 % 0.0 in 657.0 W/m2 CLR
16:01 22.2 °F 10.3 °F 1021.6 in SE 18.5 mph 18.5 mph 47 % 0.0 in 654.0 W/m2 CLR
16:06 22.2 °F 10.1 °F 1021.6 in ESE 24.1 mph 24.1 mph 46 % 0.0 in 580.0 W/m2 CLR
16:11 21.9 °F 9.8 °F 1021.6 in ESE 24.1 mph 24.1 mph 46 % 0.0 in 594.0 W/m2 CLR
16:16 21.8 °F 10.0 °F 1021.6 in ESE 18.5 mph 18.5 mph 47 % 0.0 in 578.0 W/m2 CLR
16:21 21.9 °F 10.1 °F 1021.6 in SE 22.2 mph 22.2 mph 47 % 0.0 in 661.0 W/m2 CLR
16:26 22.1 °F 10.6 °F 1021.2 in SE 16.7 mph 16.7 mph 48 % 0.0 in 663.0 W/m2 CLR
16:31 22.1 °F 10.6 °F 1021.2 in East 14.8 mph 14.8 mph 48 % 0.0 in 606.0 W/m2 CLR
16:36 22.1 °F 10.6 °F 1021.2 in ESE 22.2 mph 22.2 mph 48 % 0.0 in 519.0 W/m2 CLR
16:41 21.9 °F 10.1 °F 1021.2 in SSE 22.2 mph 22.2 mph 47 % 0.0 in 438.0 W/m2 CLR
16:46 21.7 °F 9.9 °F 1021.2 in SE 25.9 mph 25.9 mph 47 % 0.0 in 464.0 W/m2 CLR
16:51 21.5 °F 10.0 °F 1021.2 in ESE 20.4 mph 20.4 mph 48 % 0.0 in 510.0 W/m2 CLR
16:56 21.3 °F 10.2 °F 1021.2 in SE 29.6 mph 29.6 mph 49 % 0.0 in 480.0 W/m2 CLR
17:01 21.3 °F 10.2 °F 1021.2 in SE 22.2 mph 22.2 mph 49 % 0.0 in 608.0 W/m2 CLR
17:06 21.3 °F 10.2 °F 1021.2 in SE 25.9 mph 25.9 mph 49 % 0.0 in 526.0 W/m2 CLR
17:11 21.2 °F 10.7 °F 1021.2 in ESE 29.6 mph 29.6 mph 51 % 0.0 in 489.0 W/m2 CLR
17:16 21.1 °F 10.6 °F 1021.2 in SE 24.1 mph 24.1 mph 51 % 0.0 in 399.0 W/m2 CLR
17:21 21.1 °F 10.3 °F 1021.2 in SE 24.1 mph 24.1 mph 50 % 0.0 in 394.0 W/m2 CLR
17:26 20.9 °F 10.4 °F 1020.9 in ESE 24.1 mph 24.1 mph 51 % 0.0 in 376.0 W/m2 CLR
17:31 20.7 °F 10.4 °F 1021.2 in ESE 24.1 mph 24.1 mph 52 % 0.0 in 420.0 W/m2 CLR
17:36 20.5 °F 10.6 °F 1021.2 in SE 29.6 mph 29.6 mph 53 % 0.0 in 410.0 W/m2 CLR
17:41 20.6 °F 10.7 °F 1021.2 in SE 18.5 mph 18.5 mph 53 % 0.0 in 418.0 W/m2 CLR
17:46 20.5 °F 10.3 °F 1021.2 in SE 24.1 mph 24.1 mph 52 % 0.0 in 343.0 W/m2 CLR
17:48 20.4 °F 10.2 °F 1021.2 in SE 24.1 mph 24.1 mph 52 % 0.0 in 374.0 W/m2 CLR
17:53 20.2 °F 9.7 °F 1021.2 in ESE 27.8 mph 27.8 mph 51 % 0.0 in 350.0 W/m2 CLR
17:58 20.2 °F 9.7 °F 1021.2 in ESE 25.7 mph 25.7 mph 51 % 0.0 in 325.0 W/m2 CLR
18:03 20.2 °F 9.4 °F 1021.2 in SE 22.2 mph 22.2 mph 50 % 0.0 in 343.0 W/m2 CLR
18:08 20.1 °F 9.0 °F 1021.2 in ESE 24.1 mph 24.1 mph 49 % 0.0 in 260.0 W/m2 CLR
18:13 20.1 °F 8.7 °F 1021.2 in ESE 18.5 mph 18.5 mph 48 % 0.0 in 234.0 W/m2 CLR
18:18 20.2 °F 8.5 °F 1020.9 in ESE 19.3 mph 19.3 mph 47 % 0.0 in 258.0 W/m2 CLR
18:23 20.2 °F 8.6 °F 1021.2 in SE 18.5 mph 18.5 mph 47 % 0.0 in 244.0 W/m2 FEW
18:28 20.2 °F 8.6 °F 1021.2 in SE 20.4 mph 20.4 mph 47 % 0.0 in 269.0 W/m2 BKN
18:33 20.2 °F 8.6 °F 1020.9 in ESE 19.3 mph 19.3 mph 47 % 0.0 in 200.0 W/m2 OVC
18:38 20.2 °F 8.8 °F 1020.9 in ESE 20.4 mph 20.4 mph 48 % 0.0 in 193.0 W/m2 OVC
18:43 20.1 °F 8.4 °F 1020.9 in ESE 11.1 mph 11.1 mph 47 % 0.0 in 199.0 W/m2 OVC
18:48 20.1 °F 8.7 °F 1021.2 in SE 11.3 mph 11.3 mph 48 % 0.0 in 178.0 W/m2 OVC
18:53 20.1 °F 8.7 °F 1021.2 in SE 9.3 mph 9.3 mph 48 % 0.0 in 151.0 W/m2 OVC
18:58 19.9 °F 8.6 °F 1021.2 in SE 11.3 mph 11.3 mph 48 % 0.0 in 123.0 W/m2 OVC
19:03 19.9 °F 8.6 °F 1020.9 in ESE 20.4 mph 20.4 mph 48 % 0.0 in 125.0 W/m2 OVC
19:08 19.9 °F 8.6 °F 1021.2 in SE 7.4 mph 7.4 mph 48 % 0.0 in 111.0 W/m2 OVC
19:13 19.8 °F 8.5 °F 1021.2 in SE 13.0 mph 13.0 mph 48 % 0.0 in 102.0 W/m2 OVC
19:18 19.7 °F 7.4 °F 1021.2 in SE 18.5 mph 18.5 mph 45 % 0.0 in 90.0 W/m2 OVC
19:23 19.7 °F 7.4 °F 1021.2 in SE 16.7 mph 16.7 mph 45 % 0.0 in 81.0 W/m2 OVC
19:28 19.6 °F 6.9 °F 1020.9 in SSE 20.9 mph 20.9 mph 44 % 0.0 in 72.0 W/m2 OVC
19:33 19.4 °F 7.2 °F 1021.2 in SSE 13.0 mph 13.0 mph 45 % 0.0 in 63.0 W/m2 OVC
19:38 19.3 °F 7.4 °F 1021.2 in SSE 5.6 mph   46 % 0.0 in 54.0 W/m2 OVC
19:43 19.1 °F 7.5 °F 1021.2 in SSE 5.6 mph 5.6 mph 47 % 0.0 in 44.0 W/m2 OVC
19:48 18.9 °F 7.3 °F 1021.2 in South 1.6 mph 1.6 mph 47 % 0.0 in 37.0 W/m2 OVC
19:53 18.8 °F 7.2 °F 1021.2 in SE 4.8 mph 4.8 mph 47 % 0.0 in 30.0 W/m2 OVC
19:58 18.6 °F 7.1 °F 1021.2 in SSE 7.4 mph 7.4 mph 47 % 0.0 in 25.0 W/m2 OVC
20:03 18.4 °F 7.2 °F 1021.6 in SSE 3.7 mph   48 % 0.0 in 19.0 W/m2 OVC
20:08 18.3 °F 6.8 °F 1021.6 in SSE 7.4 mph 7.4 mph 47 % 0.0 in 14.0 W/m2 OVC
20:13 18.2 °F 6.9 °F 1021.6 in SSE 11.3 mph 11.3 mph 48 % 0.0 in 7.0 W/m2 OVC
20:18 17.9 °F 6.7 °F 1021.6 in SSE 11.1 mph 11.1 mph 48 % 0.0 in 0.0 W/m2 OVC
20:23 17.7 °F 6.6 °F 1021.6 in SSE 9.3 mph 9.3 mph 48 % 0.0 in 0.0 W/m2 OVC
20:28 17.6 °F 6.4 °F 1021.6 in SSE 7.4 mph 7.4 mph 48 % 0.0 in 0.0 W/m2 OVC
20:33 17.4 °F 6.3 °F 1021.6 in SE 5.6 mph 5.6 mph 48 % 0.0 in 0.0 W/m2 CLR
20:38 17.3 °F 5.8 °F 1021.6 in SSE 7.4 mph 7.4 mph 47 % 0.0 in 0.0 W/m2 CLR
20:43 17.1 °F 6.0 °F 1021.6 in Calm   2.7 mph 48 % 0.0 in 0.0 W/m2 CLR
20:48 17.0 °F 5.6 °F 1021.6 in SSE 9.3 mph 9.3 mph 47 % 0.0 in 0.0 W/m2 CLR
20:53 16.9 °F 5.5 °F 1021.6 in SE 5.6 mph 5.6 mph 47 % 0.0 in 0.0 W/m2 CLR
20:58 16.8 °F 5.1 °F 1021.6 in South 11.3 mph 11.3 mph 46 % 0.0 in 0.0 W/m2 CLR
21:03 17.0 °F 4.7 °F 1021.9 in SSE 18.5 mph 18.5 mph 44 % 0.0 in 0.0 W/m2 CLR
21:08 17.0 °F 4.9 °F 1021.9 in SSE 14.8 mph 14.8 mph 45 % 0.0 in 0.0 W/m2 CLR
21:13 16.8 °F 4.8 °F 1021.9 in SSE 18.5 mph 18.5 mph 45 % 0.0 in 0.0 W/m2 CLR
21:18 16.7 °F 4.7 °F 1021.9 in SSE 12.9 mph 12.9 mph 45 % 0.0 in 0.0 W/m2 CLR
21:24 16.6 °F 4.6 °F 1021.9 in SSE 7.4 mph 7.4 mph 45 % 0.0 in 0.0 W/m2 CLR
21:29 16.5 °F 4.5 °F 1021.9 in South 13.0 mph 13.0 mph 45 % 0.0 in 0.0 W/m2 CLR
21:33 16.4 °F 4.4 °F 1021.9 in SSE 9.3 mph 9.3 mph 45 % 0.0 in 0.0 W/m2 CLR
21:39 16.4 °F 4.4 °F 1022.2 in SSE 6.4 mph 6.4 mph 45 % 0.0 in 0.0 W/m2 CLR
21:44 16.3 °F 4.6 °F 1022.2 in SE 5.6 mph 5.6 mph 46 % 0.0 in 0.0 W/m2 CLR
21:49 16.1 °F 4.5 °F 1022.2 in South 5.6 mph 5.6 mph 46 % 0.0 in 0.0 W/m2 CLR
21:54 16.1 °F 4.4 °F 1022.2 in SSE 9.3 mph 9.3 mph 46 % 0.0 in 0.0 W/m2 CLR
21:59 16.1 °F 4.4 °F 1022.2 in SSE 7.4 mph 7.4 mph 46 % 0.0 in 0.0 W/m2 CLR
22:04 15.9 °F 4.6 °F 1022.2 in SE 13.0 mph 13.0 mph 47 % 0.0 in 0.0 W/m2 CLR
22:09 15.9 °F 4.3 °F 1022.2 in SSE 16.7 mph 16.7 mph 46 % 0.0 in 0.0 W/m2 CLR
22:14 15.9 °F 4.3 °F 1022.2 in SSE 16.7 mph 16.7 mph 46 % 0.0 in 0.0 W/m2 CLR
22:19 16.0 °F 4.4 °F 1022.2 in SSE 18.5 mph 18.5 mph 46 % 0.0 in 0.0 W/m2 CLR
22:24 15.9 °F 4.6 °F 1022.2 in SSE 13.0 mph 13.0 mph 47 % 0.0 in 0.0 W/m2 CLR
22:29 15.8 °F 4.6 °F 1022.2 in SSE 6.4 mph 6.4 mph 47 % 0.0 in 0.0 W/m2 CLR
22:34 15.8 °F 4.5 °F 1022.2 in SSE 7.4 mph 7.4 mph 47 % 0.0 in 0.0 W/m2 CLR
22:39 15.7 °F 4.4 °F 1022.2 in South 13.0 mph 13.0 mph 47 % 0.0 in 0.0 W/m2 CLR
22:44 15.7 °F 4.7 °F 1022.2 in Calm     48 % 0.0 in 0.0 W/m2 CLR
22:49 15.8 °F 4.5 °F 1022.2 in South 5.6 mph 5.6 mph 47 % 0.0 in 0.0 W/m2 CLR
22:54 15.8 °F 4.2 °F 1022.2 in SSE 7.4 mph 7.4 mph 46 % 0.0 in 0.0 W/m2 CLR
22:59 15.8 °F 4.2 °F 1022.2 in ESE 7.4 mph 7.4 mph 46 % 0.0 in 0.0 W/m2 CLR
23:04 15.7 °F 4.1 °F 1022.2 in South 7.4 mph 7.4 mph 46 % 0.0 in 0.0 W/m2 CLR
23:09 15.7 °F 4.1 °F 1022.2 in SE 8.0 mph 8.0 mph 46 % 0.0 in 0.0 W/m2 CLR
23:14 15.6 °F 4.0 °F 1022.2 in South 5.6 mph 5.6 mph 46 % 0.0 in 0.0 W/m2 CLR
23:19 15.7 °F 4.1 °F 1022.2 in South 16.1 mph 16.1 mph 46 % 0.0 in 0.0 W/m2 CLR
23:24 15.6 °F 4.0 °F 1022.2 in South 7.4 mph 7.4 mph 46 % 0.0 in 0.0 W/m2 CLR
23:29 15.4 °F 3.8 °F 1022.2 in SSW 5.6 mph 5.6 mph 46 % 0.0 in 0.0 W/m2 CLR
23:34 15.2 °F 3.9 °F 1022.2 in South 7.4 mph 7.4 mph 47 % 0.0 in 0.0 W/m2 CLR
23:39 14.9 °F 4.0 °F 1022.2 in South 6.4 mph 6.4 mph 48 % 0.0 in 0.0 W/m2 CLR
23:44 14.8 °F 3.9 °F 1022.2 in SSE 3.7 mph   48 % 0.0 in 0.0 W/m2 CLR
23:49 14.8 °F 3.9 °F 1022.2 in Calm     48 % 0.0 in 0.0 W/m2 CLR
23:54 14.7 °F 3.8 °F 1022.2 in Calm     48 % 0.0 in 0.0 W/m2 CLR
23:59 14.6 °F 3.7 °F 1022.2 in Calm     48 % 0.0 in 0.0 W/m2 CLR
Lo Temps de Massalio
Compliments of Weather Underground - 1.25 mb